Time;durP1;ratioP1;P1;durP2;ratioP2;P2;SDS_P1;SDS_P2;PMS_P1;PMS_P2;Temp;Humidity;BMP_temperature;BMP_pressure;BME280_temperature;BME280_humidity;BME280_pressure;Samples;Min_cycle;Max_cycle;Signal;HPM_P1;HPM_P2
2022/02/04 08:28:39;;;;;;;67.20;40.42;;;;;;;;;;7361708;19;153831;-14
2022/02/04 08:31:34;;;;;;;64.53;38.30;;;;;;;;;;7366335;19;161808;-14
2022/02/04 08:37:21;;;;;;;57.78;36.13;;;;;;;;;;7363850;19;154012;-15
2022/02/04 08:54:08;;;;;;;63.35;36.60;;;;;;;;;;7363072;19;161770;-14
2022/02/04 08:56:45;;;;;;;55.40;35.67;;;;;;;;;;7362828;19;162371;-16
2022/02/04 08:59:28;;;;;;;56.40;37.03;;;;;;;;;;7363849;19;153893;-14
2022/02/04 09:02:06;;;;;;;58.50;35.88;;;;;;;;;;7363085;19;153669;-14
2022/02/04 09:04:41;;;;;;;59.15;37.30;;;;;;;;;;7360774;19;161962;-15
2022/02/04 09:07:15;;;;;;;55.55;34.40;;;;;;;;;;7361406;19;162465;-15
2022/02/04 09:09:52;;;;;;;55.72;34.70;;;;;;;;;;7363146;19;153814;-14
2022/02/04 09:23:46;;;;;;;51.90;32.08;;;;;;;;;;7359413;19;153689;-15
2022/02/04 09:26:18;;;;;;;55.50;34.42;;;;;;;;;;7333028;19;161889;-15
2022/02/04 09:28:49;;;;;;;49.97;33.65;;;;;;;;;;7331864;19;162375;-14
2022/02/04 09:31:23;;;;;;;54.40;34.67;;;;;;;;;;7332325;19;153990;-15
2022/02/04 09:33:55;;;;;;;52.10;33.08;;;;;;;;;;7333401;19;153927;-14
2022/02/04 09:36:26;;;;;;;48.97;31.00;;;;;;;;;;7333117;19;162220;-14
2022/02/04 09:38:59;;;;;;;50.00;32.95;;;;;;;;;;7332908;19;162494;-14
2022/02/04 09:41:30;;;;;;;48.83;34.43;;;;;;;;;;7333271;19;154851;-15
2022/02/04 09:44:02;;;;;;;31.50;20.38;;;;;;;;;;7332186;19;153635;-15
2022/02/04 09:46:39;;;;;;;26.10;16.75;;;;;;;;;;7332444;19;161651;-14
2022/02/04 09:49:20;;;;;;;26.60;16.10;;;;;;;;;;7332579;19;162357;-15
2022/02/04 10:09:09;;;;;;;27.13;18.15;;;;;;;;;;7331870;19;161927;-15
2022/02/04 10:17:23;;;;;;;25.38;17.02;;;;;;;;;;7330941;19;153906;-14
2022/02/04 10:20:00;;;;;;;26.02;17.95;;;;;;;;;;7330622;19;162305;-15
2022/02/04 10:22:34;;;;;;;26.70;16.85;;;;;;;;;;7331684;19;162377;-15
2022/02/04 10:25:08;;;;;;;23.75;15.82;;;;;;;;;;7328573;19;154042;-15
2022/02/04 10:27:52;;;;;;;23.17;16.40;;;;;;;;;;7335819;19;153640;-15
2022/02/04 10:30:23;;;;;;;22.88;16.10;;;;;;;;;;7333952;19;161834;-15
2022/02/04 10:32:55;;;;;;;24.10;15.85;;;;;;;;;;7333959;19;162296;-15
2022/02/04 10:35:36;;;;;;;25.42;16.45;;;;;;;;;;7334641;19;153958;-15
2022/02/04 10:38:16;;;;;;;22.85;16.15;;;;;;;;;;7329530;19;153568;-15
2022/02/04 10:40:55;;;;;;;21.13;15.10;;;;;;;;;;7333698;19;161741;-15
2022/02/04 10:43:53;;;;;;;23.40;15.63;;;;;;;;;;7333657;19;162592;-14
2022/02/04 10:46:33;;;;;;;22.30;14.68;;;;;;;;;;7333046;19;154574;-14
2022/02/04 10:52:28;;;;;;;22.52;14.63;;;;;;;;;;7329951;19;161926;-15
2022/02/04 10:58:13;;;;;;;27.05;15.02;;;;;;;;;;7334868;19;153982;-15
2022/02/04 11:01:08;;;;;;;22.17;15.93;;;;;;;;;;7334278;19;153592;-15
2022/02/04 11:03:41;;;;;;;20.98;15.27;;;;;;;;;;7334402;19;161766;-15
2022/02/04 11:06:23;;;;;;;22.95;15.23;;;;;;;;;;7328899;19;163643;-15
2022/02/04 11:09:08;;;;;;;20.70;15.38;;;;;;;;;;7333284;19;154283;-15
2022/02/04 11:34:19;;;;;;;18.97;14.00;;;;;;;;;;7332338;19;153633;-14
2022/02/04 11:51:51;;;;;;;17.33;13.23;;;;;;;;;;7333233;19;162474;-21
2022/02/04 11:54:54;;;;;;;16.65;12.50;;;;;;;;;;7328783;19;154086;-15
2022/02/04 11:57:27;;;;;;;17.35;13.15;;;;;;;;;;7328989;19;153656;-16
2022/02/04 12:00:03;;;;;;;18.98;13.45;;;;;;;;;;7331083;19;161961;-16
2022/02/04 12:02:42;;;;;;;18.58;13.13;;;;;;;;;;7328897;19;162344;-15
2022/02/04 12:05:29;;;;;;;18.10;12.40;;;;;;;;;;7328392;19;154008;-16
2022/02/04 12:08:19;;;;;;;19.52;12.63;;;;;;;;;;7329164;19;153940;-15
2022/02/04 12:10:54;;;;;;;18.20;13.43;;;;;;;;;;7328641;19;161892;-15
2022/02/04 12:13:26;;;;;;;17.08;12.90;;;;;;;;;;7329180;19;162437;-15
2022/02/04 12:16:10;;;;;;;16.13;12.25;;;;;;;;;;7331885;19;153884;-16
2022/02/04 12:19:10;;;;;;;17.45;13.73;;;;;;;;;;7328713;19;153794;-15
2022/02/04 12:21:50;;;;;;;20.70;13.02;;;;;;;;;;7328007;19;161913;-15
2022/02/04 12:24:38;;;;;;;19.60;12.95;;;;;;;;;;7324893;19;163777;-15
2022/02/04 12:27:45;;;;;;;16.50;12.35;;;;;;;;;;7328628;19;153966;-15
2022/02/04 12:30:35;;;;;;;15.38;11.85;;;;;;;;;;7330926;19;153650;-14
2022/02/04 12:33:09;;;;;;;14.88;11.90;;;;;;;;;;7329579;19;161909;-15
2022/02/04 12:35:41;;;;;;;22.83;12.45;;;;;;;;;;7328674;19;162685;-15
2022/02/04 12:38:12;;;;;;;15.85;13.10;;;;;;;;;;7331610;19;153883;-15
2022/02/04 12:40:43;;;;;;;10.20;7.28;;;;;;;;;;7328085;19;153538;-15
2022/02/04 12:43:15;;;;;;;10.55;6.13;;;;;;;;;;7327681;19;162027;-16
2022/02/04 12:45:47;;;;;;;8.15;6.28;;;;;;;;;;7329940;19;162516;-15
2022/02/04 12:48:22;;;;;;;8.33;6.37;;;;;;;;;;7328182;19;153997;-15
2022/02/04 12:50:57;;;;;;;8.82;6.38;;;;;;;;;;7327875;19;153507;-15
2022/02/04 12:53:31;;;;;;;11.00;7.60;;;;;;;;;;7329922;19;161835;-15
2022/02/04 12:56:22;;;;;;;9.80;7.28;;;;;;;;;;7329080;19;162735;-14
2022/02/04 13:10:02;;;;;;;8.30;6.70;;;;;;;;;;7335376;19;154000;-16
2022/02/04 13:12:33;;;;;;;7.95;6.53;;;;;;;;;;7335068;19;153456;-15
2022/02/04 13:15:15;;;;;;;9.27;6.75;;;;;;;;;;7335533;19;161838;-15
2022/02/04 13:17:46;;;;;;;8.65;6.70;;;;;;;;;;7332747;19;162394;-15
2022/02/04 13:20:23;;;;;;;9.52;6.90;;;;;;;;;;7330504;19;154115;-15
2022/02/04 13:22:58;;;;;;;9.60;7.03;;;;;;;;;;7334342;19;153948;-15
2022/02/04 13:25:34;;;;;;;9.55;6.80;;;;;;;;;;7335297;19;161959;-16
2022/02/04 13:28:11;;;;;;;8.00;6.20;;;;;;;;;;7333912;19;162366;-15
2022/02/04 13:30:55;;;;;;;9.75;6.28;;;;;;;;;;7336448;19;154335;-15
2022/02/04 13:33:28;;;;;;;9.20;6.50;;;;;;;;;;7334515;19;153704;-15
2022/02/04 13:36:17;;;;;;;8.10;6.28;;;;;;;;;;7333358;19;162522;-16
2022/02/04 13:38:56;;;;;;;10.00;6.90;;;;;;;;;;7333087;19;162454;-15
2022/02/04 13:41:39;;;;;;;7.93;6.30;;;;;;;;;;7332901;19;153878;-15
2022/02/04 13:44:33;;;;;;;8.60;6.57;;;;;;;;;;7332954;19;153584;-16
2022/02/04 13:47:19;;;;;;;9.25;6.45;;;;;;;;;;7333366;19;161827;-15
2022/02/04 13:50:03;;;;;;;7.85;5.60;;;;;;;;;;7336166;19;162359;-15
2022/02/04 13:55:34;;;;;;;6.68;5.60;;;;;;;;;;7334610;19;153593;-15
2022/02/04 13:58:17;;;;;;;10.05;5.55;;;;;;;;;;7332290;19;161845;-14
2022/02/04 14:00:57;;;;;;;7.30;5.28;;;;;;;;;;7335308;19;162485;-15
2022/02/04 14:03:32;;;;;;;9.93;5.97;;;;;;;;;;7336036;19;153985;-14
2022/02/04 14:06:07;;;;;;;10.00;5.65;;;;;;;;;;7333916;19;153673;-15
2022/02/04 14:08:49;;;;;;;8.18;5.70;;;;;;;;;;7335321;19;161885;-14
2022/02/04 14:11:31;;;;;;;6.03;5.43;;;;;;;;;;7329215;19;162576;-15
2022/02/04 14:14:06;;;;;;;8.52;4.85;;;;;;;;;;7333613;19;154100;-15
2022/02/04 14:16:38;;;;;;;7.72;4.70;;;;;;;;;;7333779;19;154592;-14
2022/02/04 14:19:10;;;;;;;9.02;5.57;;;;;;;;;;7331208;19;162050;-14
2022/02/04 14:21:41;;;;;;;7.40;4.80;;;;;;;;;;7335012;19;162591;-15
2022/02/04 14:24:15;;;;;;;7.03;5.13;;;;;;;;;;7333426;19;154358;-15
2022/02/04 14:26:48;;;;;;;6.93;5.22;;;;;;;;;;7334260;19;153771;-15
2022/02/04 14:29:24;;;;;;;8.65;4.45;;;;;;;;;;7334937;19;161899;-15
2022/02/04 14:32:01;;;;;;;6.80;5.13;;;;;;;;;;7333949;19;162489;-15
2022/02/04 14:34:55;;;;;;;7.50;5.25;;;;;;;;;;7336104;19;153947;-15
2022/02/04 14:37:48;;;;;;;7.90;4.50;;;;;;;;;;7331828;19;153507;-15
2022/02/04 14:51:44;;;;;;;7.10;4.65;;;;;;;;;;7330703;19;161790;-15
2022/02/04 14:54:31;;;;;;;5.60;4.10;;;;;;;;;;7330894;19;162437;-14
2022/02/04 15:02:46;;;;;;;5.22;3.72;;;;;;;;;;7330172;19;161807;-14
2022/02/04 15:05:20;;;;;;;3.80;3.45;;;;;;;;;;7330770;19;162656;-15
2022/02/04 15:08:01;;;;;;;6.90;3.65;;;;;;;;;;7329058;19;153977;-15
2022/02/04 15:10:35;;;;;;;7.88;3.85;;;;;;;;;;7330893;19;153670;-16
2022/02/04 15:13:12;;;;;;;6.15;3.70;;;;;;;;;;7330609;19;161870;-14
2022/02/04 15:15:44;;;;;;;4.03;3.45;;;;;;;;;;7330503;19;162331;-15
2022/02/04 15:18:15;;;;;;;4.28;3.45;;;;;;;;;;7330716;19;154164;-14
2022/02/04 15:20:46;;;;;;;4.10;3.13;;;;;;;;;;7330652;19;153623;-16
2022/02/04 15:23:18;;;;;;;5.10;3.20;;;;;;;;;;7326787;19;161773;-15
2022/02/04 15:25:52;;;;;;;4.43;2.95;;;;;;;;;;7330140;19;162496;-15
2022/02/04 15:31:18;;;;;;;3.50;2.42;;;;;;;;;;7329775;19;153809;-16
2022/02/04 15:33:51;;;;;;;4.65;2.50;;;;;;;;;;7329947;19;162207;-14
2022/02/04 15:36:28;;;;;;;4.13;3.30;;;;;;;;;;7329864;19;162448;-15
2022/02/04 15:39:01;;;;;;;4.13;2.72;;;;;;;;;;7330202;19;154337;-16
2022/02/04 15:41:33;;;;;;;4.30;3.00;;;;;;;;;;7330145;19;153530;-15
2022/02/04 15:44:13;;;;;;;4.07;3.00;;;;;;;;;;7329773;19;161871;-15
2022/02/04 15:47:05;;;;;;;4.13;2.97;;;;;;;;;;7329568;19;162480;-15
2022/02/04 15:58:09;;;;;;;4.97;2.60;;;;;;;;;;7329546;19;162425;-15
2022/02/04 16:01:07;;;;;;;7.80;2.85;;;;;;;;;;7329707;19;154217;-15
2022/02/04 16:03:47;;;;;;;2.75;2.47;;;;;;;;;;7329308;19;153807;-15
2022/02/04 16:06:21;;;;;;;4.43;2.50;;;;;;;;;;7328953;19;161850;-14
2022/02/04 16:08:55;;;;;;;3.92;2.17;;;;;;;;;;7325545;19;162668;-16
2022/02/04 16:11:46;;;;;;;4.40;2.60;;;;;;;;;;7329286;19;154280;-15
2022/02/04 16:14:21;;;;;;;2.92;2.33;;;;;;;;;;7329065;19;153757;-15
2022/02/04 16:17:00;;;;;;;3.58;2.25;;;;;;;;;;7327345;19;161828;-15
2022/02/04 16:19:37;;;;;;;4.43;2.55;;;;;;;;;;7327517;19;162422;-15
2022/02/04 16:22:17;;;;;;;3.10;2.65;;;;;;;;;;7328702;19;154075;-16
2022/02/04 16:30:18;;;;;;;3.50;2.58;;;;;;;;;;7328035;19;162337;-15
2022/02/04 16:32:53;;;;;;;3.15;2.20;;;;;;;;;;7328399;19;153775;-15
2022/02/04 16:35:24;;;;;;;4.15;2.42;;;;;;;;;;7330084;19;153734;-16
2022/02/04 16:38:03;;;;;;;3.00;2.03;;;;;;;;;;7334672;19;161872;-16
2022/02/04 16:40:42;;;;;;;5.55;2.60;;;;;;;;;;7335047;19;162334;-15
2022/02/04 16:43:13;;;;;;;3.03;2.10;;;;;;;;;;7335295;19;153962;-15
2022/02/04 16:45:44;;;;;;;4.50;2.10;;;;;;;;;;7335069;19;153728;-14
2022/02/04 16:48:18;;;;;;;3.17;2.40;;;;;;;;;;7333655;19;162073;-15
2022/02/04 16:50:50;;;;;;;5.53;2.65;;;;;;;;;;7334594;19;162158;-15
2022/02/04 16:53:22;;;;;;;3.80;2.37;;;;;;;;;;7334943;19;154329;-14
2022/02/04 16:55:53;;;;;;;5.03;2.25;;;;;;;;;;7333444;19;153739;-15
2022/02/04 16:58:25;;;;;;;3.55;2.25;;;;;;;;;;7334477;19;161686;-16
2022/02/04 17:00:57;;;;;;;4.72;2.38;;;;;;;;;;7333994;19;162663;-15
2022/02/04 17:03:31;;;;;;;3.03;2.13;;;;;;;;;;7334785;19;154016;-15
2022/02/04 17:06:04;;;;;;;2.13;1.90;;;;;;;;;;7334508;19;153792;-14
2022/02/04 17:08:45;;;;;;;3.33;2.15;;;;;;;;;;7333195;19;163354;-15
2022/02/04 17:11:29;;;;;;;5.18;2.28;;;;;;;;;;7334087;19;162479;-15
2022/02/04 17:14:00;;;;;;;3.45;2.38;;;;;;;;;;7334560;19;154195;-15
2022/02/04 17:16:31;;;;;;;3.78;2.30;;;;;;;;;;7334481;19;153571;-15
2022/02/04 17:19:05;;;;;;;2.13;1.85;;;;;;;;;;7333905;19;162136;-15
2022/02/04 17:21:39;;;;;;;2.22;1.75;;;;;;;;;;7333600;19;162387;-15
2022/02/04 17:24:14;;;;;;;2.47;1.87;;;;;;;;;;7331653;19;154223;-15
2022/02/04 17:26:45;;;;;;;1.83;1.40;;;;;;;;;;7333967;19;153883;-15
2022/02/04 17:29:20;;;;;;;5.13;2.10;;;;;;;;;;7331022;19;162061;-14
2022/02/04 17:31:51;;;;;;;1.95;1.73;;;;;;;;;;7333341;19;162374;-15
2022/02/04 17:34:25;;;;;;;2.05;1.83;;;;;;;;;;7333607;19;153953;-15
2022/02/04 17:36:57;;;;;;;2.88;2.13;;;;;;;;;;7333694;19;153578;-15
2022/02/04 17:39:28;;;;;;;3.15;1.92;;;;;;;;;;7333259;19;161826;-15
2022/02/04 17:42:01;;;;;;;2.97;1.83;;;;;;;;;;7333333;19;163067;-15
2022/02/04 17:44:33;;;;;;;2.65;1.77;;;;;;;;;;7332360;19;154027;-16
2022/02/04 17:47:06;;;;;;;1.42;1.33;;;;;;;;;;7332504;19;153266;-15
2022/02/04 17:49:48;;;;;;;2.33;2.00;;;;;;;;;;7330641;19;161924;-15
2022/02/04 17:52:23;;;;;;;2.15;1.92;;;;;;;;;;7333210;19;162534;-15
2022/02/04 17:54:59;;;;;;;1.88;1.65;;;;;;;;;;7333265;19;154117;-16
2022/02/04 17:57:38;;;;;;;3.38;1.92;;;;;;;;;;7333171;19;153567;-15
2022/02/04 18:03:11;;;;;;;1.90;1.75;;;;;;;;;;7332350;19;162968;-14
2022/02/04 18:05:58;;;;;;;2.08;1.80;;;;;;;;;;7332891;19;153996;-14
2022/02/04 18:08:29;;;;;;;2.05;1.67;;;;;;;;;;7332244;19;153551;-13
2022/02/04 18:11:03;;;;;;;2.65;1.90;;;;;;;;;;7332319;19;161809;-14
2022/02/04 18:13:35;;;;;;;1.73;1.60;;;;;;;;;;7332094;19;162680;-15
2022/02/04 18:16:07;;;;;;;2.58;1.63;;;;;;;;;;7332398;19;154056;-14
2022/02/04 18:18:39;;;;;;;2.35;1.45;;;;;;;;;;7332327;19;153733;-14
2022/02/04 18:21:14;;;;;;;2.17;1.48;;;;;;;;;;7331987;19;161981;-14
2022/02/04 18:23:45;;;;;;;1.75;1.50;;;;;;;;;;7329509;19;162661;-15
2022/02/04 18:26:16;;;;;;;3.13;1.38;;;;;;;;;;7332267;19;154414;-14
2022/02/04 18:28:48;;;;;;;1.88;1.77;;;;;;;;;;7331957;19;153679;-14
2022/02/04 18:31:19;;;;;;;2.38;1.83;;;;;;;;;;7331836;19;161814;-15
2022/02/04 18:33:50;;;;;;;1.67;1.58;;;;;;;;;;7330461;19;162391;-15
2022/02/04 18:36:24;;;;;;;2.78;1.60;;;;;;;;;;7332011;19;154290;-14
2022/02/04 18:39:10;;;;;;;1.95;1.50;;;;;;;;;;7331919;19;154537;-15
2022/02/04 18:42:23;;;;;;;2.15;1.70;;;;;;;;;;7331572;19;161994;-15
2022/02/04 18:44:59;;;;;;;2.28;1.70;;;;;;;;;;7331460;19;162743;-13
2022/02/04 18:47:36;;;;;;;3.33;2.10;;;;;;;;;;7331906;19;154047;-14
2022/02/04 18:50:20;;;;;;;3.45;2.35;;;;;;;;;;7330098;19;153463;-14
2022/02/04 18:53:11;;;;;;;2.80;2.35;;;;;;;;;;7331295;19;161838;-15
2022/02/04 18:55:59;;;;;;;4.38;2.15;;;;;;;;;;7331049;19;162437;-14
2022/02/04 18:58:34;;;;;;;2.28;1.83;;;;;;;;;;7329152;19;154104;-14
2022/02/04 19:01:06;;;;;;;1.93;1.50;;;;;;;;;;7330115;19;153503;-14
2022/02/04 19:03:42;;;;;;;3.33;1.40;;;;;;;;;;7330968;19;162104;-14
2022/02/04 19:06:18;;;;;;;2.17;1.88;;;;;;;;;;7329658;19;162496;-13
2022/02/04 19:08:56;;;;;;;2.92;2.20;;;;;;;;;;7331043;19;154041;-14
2022/02/04 19:11:33;;;;;;;1.85;1.55;;;;;;;;;;7328209;19;153582;-15
2022/02/04 19:14:10;;;;;;;2.88;1.83;;;;;;;;;;7330634;19;161976;-14
2022/02/04 19:16:51;;;;;;;1.55;1.45;;;;;;;;;;7329255;19;162407;-15
2022/02/04 19:19:29;;;;;;;2.13;1.92;;;;;;;;;;7330901;19;153988;-15
2022/02/04 19:22:15;;;;;;;2.00;1.90;;;;;;;;;;7330514;19;153608;-15
2022/02/04 19:24:51;;;;;;;1.55;1.45;;;;;;;;;;7327722;19;161902;-15
2022/02/04 19:27:23;;;;;;;1.92;1.63;;;;;;;;;;7330436;19;162510;-15
2022/02/04 19:29:55;;;;;;;2.72;1.88;;;;;;;;;;7329771;19;154200;-14
2022/02/04 19:32:27;;;;;;;2.00;1.80;;;;;;;;;;7330496;19;153543;-15
2022/02/04 19:34:59;;;;;;;1.92;1.83;;;;;;;;;;7329893;19;161817;-15
2022/02/04 19:37:30;;;;;;;1.92;1.80;;;;;;;;;;7329768;19;162441;-15
2022/02/04 19:40:06;;;;;;;2.05;1.50;;;;;;;;;;7330148;19;154066;-14
2022/02/04 19:42:40;;;;;;;2.47;1.92;;;;;;;;;;7330018;19;153621;-14
2022/02/04 19:45:17;;;;;;;2.45;2.25;;;;;;;;;;7329517;19;161864;-14
2022/02/04 19:47:52;;;;;;;2.25;2.05;;;;;;;;;;7329443;19;162592;-14
2022/02/04 19:50:34;;;;;;;2.00;1.80;;;;;;;;;;7328804;19;154127;-14
2022/02/04 19:53:25;;;;;;;2.55;2.00;;;;;;;;;;7329763;19;153619;-14
2022/02/04 20:07:26;;;;;;;1.67;1.58;;;;;;;;;;7329324;19;161848;-13
2022/02/04 20:24:02;;;;;;;1.83;1.73;;;;;;;;;;7327480;19;154257;-14
2022/02/04 20:26:37;;;;;;;2.45;1.77;;;;;;;;;;7329322;19;153287;-14
2022/02/04 20:29:11;;;;;;;1.65;1.55;;;;;;;;;;7328463;19;161823;-15
2022/02/04 20:31:42;;;;;;;1.65;1.52;;;;;;;;;;7325975;19;162426;-16
2022/02/04 20:34:13;;;;;;;1.92;1.45;;;;;;;;;;7326444;19;154026;-14
2022/02/04 20:36:45;;;;;;;2.22;1.60;;;;;;;;;;7328330;19;153607;-15
2022/02/04 20:39:19;;;;;;;3.97;1.80;;;;;;;;;;7330129;19;161909;-13
2022/02/04 20:41:51;;;;;;;3.20;1.80;;;;;;;;;;7332582;19;162821;-14
2022/02/04 20:44:28;;;;;;;3.95;2.00;;;;;;;;;;7328117;19;153969;-13
2022/02/04 20:46:59;;;;;;;2.75;1.42;;;;;;;;;;7328154;19;153548;-14
2022/02/04 20:49:31;;;;;;;3.78;1.73;;;;;;;;;;7327357;19;162052;-14
2022/02/04 20:52:02;;;;;;;2.38;1.50;;;;;;;;;;7328807;19;162633;-14
2022/02/04 20:54:34;;;;;;;3.33;1.83;;;;;;;;;;7328040;19;153994;-14
2022/02/04 20:57:06;;;;;;;3.22;2.00;;;;;;;;;;7327597;19;153526;-14
2022/02/04 20:59:44;;;;;;;5.35;1.58;;;;;;;;;;7327247;19;162023;-15
2022/02/04 21:02:16;;;;;;;1.85;1.73;;;;;;;;;;7327424;19;162471;-13
2022/02/04 21:04:47;;;;;;;2.95;1.80;;;;;;;;;;7329147;19;154036;-15
2022/02/04 21:07:27;;;;;;;2.70;1.80;;;;;;;;;;7327672;19;153471;-14
2022/02/04 21:13:45;;;;;;;3.08;1.77;;;;;;;;;;7327215;19;161916;-14
2022/02/04 21:15:51;;;;;;;5.30;1.48;;;;;;;;;;7326129;19;154034;-14
2022/02/04 21:18:23;;;;;;;3.72;1.70;;;;;;;;;;7328134;19;153560;-14
2022/02/04 21:20:54;;;;;;;3.00;1.60;;;;;;;;;;7331911;19;162216;-15
2022/02/04 21:23:26;;;;;;;5.43;1.63;;;;;;;;;;7332798;19;162456;-14
2022/02/04 21:25:59;;;;;;;1.90;1.60;;;;;;;;;;7333763;19;154075;-14
2022/02/04 21:28:31;;;;;;;2.75;1.58;;;;;;;;;;7334122;19;153482;-14
2022/02/04 21:31:07;;;;;;;2.72;1.60;;;;;;;;;;7332886;19;161759;-14
2022/02/04 21:33:55;;;;;;;6.80;2.00;;;;;;;;;;7332163;19;162463;-15
2022/02/04 21:39:10;;;;;;;2.72;1.30;;;;;;;;;;7333634;19;153662;-15
2022/02/04 21:41:42;;;;;;;3.75;1.67;;;;;;;;;;7333065;19;162065;-15
2022/02/04 21:44:13;;;;;;;1.83;1.45;;;;;;;;;;7332839;19;162299;-15
2022/02/04 21:46:47;;;;;;;1.80;1.40;;;;;;;;;;7333442;19;154236;-15
2022/02/04 21:49:23;;;;;;;1.75;1.33;;;;;;;;;;7333903;19;153705;-15
2022/02/04 21:51:55;;;;;;;2.45;1.60;;;;;;;;;;7331600;19;161985;-16
2022/02/04 21:54:26;;;;;;;2.10;1.55;;;;;;;;;;7332583;19;162357;-14
2022/02/04 21:56:58;;;;;;;2.20;1.40;;;;;;;;;;7332787;19;154267;-15
2022/02/04 21:59:29;;;;;;;2.78;1.42;;;;;;;;;;7332620;19;153568;-15
2022/02/04 22:02:03;;;;;;;2.13;1.42;;;;;;;;;;7332475;19;161966;-14
2022/02/04 22:04:34;;;;;;;1.38;1.23;;;;;;;;;;7333369;19;162531;-14
2022/02/04 22:07:06;;;;;;;1.88;1.50;;;;;;;;;;7332664;19;154034;-14
2022/02/04 22:09:45;;;;;;;2.72;1.65;;;;;;;;;;7332539;19;153723;-15
2022/02/04 22:15:22;;;;;;;2.58;1.20;;;;;;;;;;7331324;19;162639;-14
2022/02/04 22:22:00;;;;;;;3.28;1.35;;;;;;;;;;7332667;19;154251;-14
2022/02/04 22:23:39;;;;;;;2.00;1.50;;;;;;;;;;7330245;19;161769;-15
2022/02/04 22:26:11;;;;;;;4.30;1.50;;;;;;;;;;7331784;19;162290;-15
2022/02/04 22:28:42;;;;;;;1.77;1.50;;;;;;;;;;7332339;19;153974;-16
2022/02/04 22:31:19;;;;;;;1.52;1.23;;;;;;;;;;7332245;19;153548;-15
2022/02/04 22:34:03;;;;;;;2.83;1.30;;;;;;;;;;7331650;19;161781;-16
2022/02/04 22:37:06;;;;;;;2.53;1.38;;;;;;;;;;7331570;19;162614;-15
2022/02/04 22:42:40;;;;;;;1.88;1.27;;;;;;;;;;7331697;19;153790;-15
2022/02/04 22:45:27;;;;;;;3.80;1.20;;;;;;;;;;7331861;19;162203;-15
2022/02/04 22:50:57;;;;;;;2.13;1.60;;;;;;;;;;7332527;19;154211;-15
2022/02/04 22:53:48;;;;;;;1.98;1.08;;;;;;;;;;7332595;19;153703;-15
2022/02/04 22:56:40;;;;;;;3.60;1.60;;;;;;;;;;7334364;19;161897;-15
2022/02/04 22:59:16;;;;;;;2.40;1.30;;;;;;;;;;7334369;19;162409;-15
2022/02/04 23:01:49;;;;;;;1.35;1.25;;;;;;;;;;7335278;19;154157;-15
2022/02/04 23:04:23;;;;;;;3.57;1.67;;;;;;;;;;7334377;19;153532;-15
2022/02/04 23:06:57;;;;;;;3.25;1.05;;;;;;;;;;7334833;19;161824;-15
2022/02/04 23:09:34;;;;;;;2.75;1.20;;;;;;;;;;7333705;19;162385;-16
2022/02/04 23:12:06;;;;;;;5.45;1.30;;;;;;;;;;7333780;19;154061;-15
2022/02/04 23:14:43;;;;;;;1.77;1.08;;;;;;;;;;7333824;19;153571;-15
2022/02/04 23:17:20;;;;;;;2.85;1.45;;;;;;;;;;7333058;19;161923;-15
2022/02/04 23:19:58;;;;;;;4.28;1.33;;;;;;;;;;7333279;19;162322;-16
2022/02/04 23:22:36;;;;;;;3.97;1.60;;;;;;;;;;7333801;19;154043;-15
2022/02/04 23:25:29;;;;;;;1.98;1.30;;;;;;;;;;7331576;19;153507;-16
2022/02/04 23:28:16;;;;;;;2.92;1.02;;;;;;;;;;7333606;19;162031;-15
2022/02/04 23:30:55;;;;;;;1.35;0.95;;;;;;;;;;7333604;19;164625;-15
2022/02/04 23:37:20;;;;;;;1.63;1.20;;;;;;;;;;7328846;19;154037;-15
